createdAt,value
2018-06-29T00:04:24.842Z,97061.36
2018-06-29T00:09:19.535Z,97059.05
2018-06-29T00:14:14.206Z,97054.48
2018-06-29T00:19:08.864Z,97052.27
2018-06-29T00:24:03.606Z,97058.67
2018-06-29T00:28:58.274Z,97059.72
2018-06-29T00:33:52.918Z,97056.69
2018-06-29T00:38:47.546Z,97055.64
2018-06-29T00:43:42.799Z,97054.48
2018-06-29T00:48:37.385Z,97045.94
2018-06-29T00:53:31.970Z,97045.70
2018-06-29T00:58:26.572Z,97048.20
2018-06-29T01:03:21.198Z,97041.09
2018-06-29T01:08:15.943Z,97041.86
2018-06-29T01:13:10.563Z,97044.05
2018-06-29T01:18:05.330Z,97042.36
2018-06-29T01:22:59.919Z,97038.16
2018-06-29T01:27:54.531Z,97045.05
2018-06-29T01:32:49.159Z,97041.80
2018-06-29T01:37:43.813Z,97034.30
2018-06-29T01:42:38.410Z,97019.63
2018-06-29T01:47:33.063Z,97017.22
2018-06-29T01:52:27.658Z,97006.63
2018-06-29T01:57:22.308Z,97003.98
2018-06-29T02:02:16.956Z,96998.85
2018-06-29T02:07:11.542Z,96998.02
2018-06-29T02:12:06.346Z,96989.53
2018-06-29T02:17:01.039Z,96986.62
2018-06-29T02:21:55.702Z,96987.33
2018-06-29T02:26:50.315Z,96995.42
2018-06-29T02:31:44.945Z,97016.17
2018-06-29T02:36:39.559Z,97006.13
2018-06-29T02:41:34.223Z,97004.54
2018-06-29T02:46:28.943Z,96998.95
2018-06-29T02:51:23.583Z,96996.31
2018-06-29T02:56:18.243Z,96999.69
2018-06-29T03:01:12.904Z,96995.60
2018-06-29T03:06:07.560Z,96991.47
2018-06-29T03:11:02.192Z,96994.03
2018-06-29T03:15:56.857Z,97003.77
2018-06-29T03:20:51.554Z,97011.14
2018-06-29T03:25:46.290Z,97005.69
2018-06-29T03:30:40.946Z,97003.59
2018-06-29T03:35:35.579Z,97002.55
2018-06-29T03:40:30.331Z,96992.27
2018-06-29T03:45:24.926Z,96988.58
2018-06-29T03:50:19.523Z,96991.02
2018-06-29T03:55:14.127Z,96996.95
2018-06-29T04:00:08.823Z,96991.02
2018-06-29T04:05:03.447Z,96988.98
2018-06-29T04:09:58.046Z,96986.17
2018-06-29T04:14:52.602Z,96992.22
2018-06-29T04:19:47.164Z,96997.12
2018-06-29T04:24:41.921Z,96992.28
2018-06-29T04:29:36.554Z,96991.01
2018-06-29T04:34:31.159Z,96990.41
2018-06-29T04:39:25.764Z,96976.67
2018-06-29T04:44:20.382Z,96991.90
2018-06-29T04:49:15.044Z,96980.28
2018-06-29T04:54:09.583Z,96980.41
2018-06-29T04:59:04.195Z,96982.14
2018-06-29T05:03:58.810Z,96981.61
2018-06-29T05:08:53.426Z,96981.73
2018-06-29T05:13:48.002Z,96976.18
2018-06-29T05:18:42.600Z,96982.63
2018-06-29T05:23:37.191Z,96989.55
2018-06-29T05:28:31.776Z,96988.03
2018-06-29T05:33:26.354Z,96996.05
2018-06-29T05:38:21.829Z,96993.52
2018-06-29T05:43:16.374Z,96990.58
2018-06-29T05:48:10.988Z,96991.94
2018-06-29T05:53:05.795Z,96990.25
2018-06-29T05:58:00.380Z,96996.50
2018-06-29T06:02:54.971Z,96996.33
2018-06-29T06:07:49.570Z,96999.97
2018-06-29T06:12:44.150Z,96993.84
2018-06-29T06:17:38.723Z,96988.25
2018-06-29T06:22:33.466Z,96987.80
2018-06-29T06:27:28.162Z,96988.08
2018-06-29T06:32:22.882Z,96991.88
2018-06-29T06:37:17.868Z,96993.88
2018-06-29T06:42:12.518Z,96999.05
2018-06-29T06:47:07.181Z,97005.11
2018-06-29T06:52:01.913Z,97015.41
2018-06-29T06:56:56.595Z,97009.39
2018-06-29T07:01:51.211Z,97013.56
2018-06-29T07:06:45.873Z,97013.81
2018-06-29T07:11:40.594Z,97017.37
2018-06-29T07:16:35.269Z,97021.56
2018-06-29T07:21:29.908Z,97014.13
2018-06-29T07:26:24.605Z,97015.26
2018-06-29T07:31:19.289Z,97013.98
2018-06-29T07:36:13.978Z,97014.09
2018-06-29T07:41:08.560Z,97006.34
2018-06-29T07:46:03.184Z,96999.69
2018-06-29T07:50:57.833Z,97001.11
2018-06-29T07:55:52.534Z,96998.20
2018-06-29T08:00:47.182Z,97001.09
2018-06-29T08:05:41.745Z,97002.19
2018-06-29T08:10:36.529Z,96991.13
2018-06-29T08:15:31.523Z,96999.69
2018-06-29T08:20:26.134Z,96995.06
2018-06-29T08:25:20.838Z,97001.73
2018-06-29T08:30:15.327Z,97002.36
2018-06-29T08:35:10.976Z,97002.65
2018-06-29T08:40:06.335Z,97000.53
2018-06-29T08:45:00.991Z,96995.27
2018-06-29T08:49:55.635Z,96991.40
2018-06-29T08:54:50.278Z,96987.91
2018-06-29T08:59:44.944Z,96986.05
2018-06-29T09:04:39.289Z,96984.31
2018-06-29T09:09:33.952Z,96987.31
2018-06-29T09:14:28.745Z,96984.72
2018-06-29T09:19:23.379Z,96989.53
2018-06-29T09:24:18.320Z,96990.05
2018-06-29T09:29:13.087Z,96987.52
2018-06-29T09:34:07.773Z,96985.86
2018-06-29T09:39:02.393Z,96984.09
2018-06-29T09:43:57.011Z,96979.34
2018-06-29T09:48:51.600Z,96976.70
2018-06-29T09:53:46.187Z,96978.43
2018-06-29T09:58:40.800Z,96978.84
2018-06-29T10:03:35.422Z,96972.44
2018-06-29T10:08:30.691Z,96966.73
2018-06-29T10:13:25.283Z,96970.97
2018-06-29T10:18:19.964Z,96972.55
2018-06-29T10:23:14.579Z,96975.87
2018-06-29T10:28:09.287Z,96969.87
2018-06-29T10:33:04.678Z,96966.09
2018-06-29T10:37:59.621Z,96968.94
2018-06-29T10:42:54.228Z,96970.89
2018-06-29T10:47:48.803Z,96967.69
2018-06-29T10:52:43.497Z,96963.41
2018-06-29T10:57:38.129Z,96961.38
2018-06-29T11:02:32.755Z,96959.44
2018-06-29T11:07:27.420Z,96956.34
2018-06-29T11:12:22.067Z,96953.61
2018-06-29T11:17:16.872Z,96943.73
2018-06-29T11:22:11.462Z,96940.61
2018-06-29T11:27:06.038Z,96934.43
2018-06-29T11:32:00.699Z,96925.56
2018-06-29T11:36:56.910Z,96931.41
2018-06-29T11:41:51.540Z,96927.41
2018-06-29T11:46:46.172Z,96916.19
2018-06-29T11:51:40.788Z,96913.53
2018-06-29T11:56:35.383Z,96903.86
2018-06-29T12:01:30.223Z,96906.86
2018-06-29T12:06:24.805Z,96903.23
2018-06-29T12:11:19.450Z,96902.84
2018-06-29T12:16:14.024Z,96897.25
2018-06-29T12:21:08.644Z,96886.95
2018-06-29T12:26:04.086Z,96892.73
2018-06-29T12:30:58.696Z,96874.77
2018-06-29T12:35:53.289Z,96871.98
2018-06-29T12:40:47.911Z,96866.72
2018-06-29T12:45:42.535Z,96860.33
2018-06-29T12:50:37.255Z,96855.58
2018-06-29T12:55:31.911Z,96845.69
2018-06-29T13:00:26.555Z,96852.59
2018-06-29T13:05:21.233Z,96845.86
2018-06-29T13:10:15.791Z,96844.75
2018-06-29T13:15:10.427Z,96833.62
2018-06-29T13:20:05.679Z,96830.64
2018-06-29T13:25:00.375Z,96834.55
2018-06-29T13:29:54.927Z,96828.14
2018-06-29T13:34:49.537Z,96830.59
2018-06-29T13:39:44.146Z,96818.94
2018-06-29T13:44:38.785Z,96813.17
2018-06-29T13:49:33.397Z,96807.57
2018-06-29T13:54:27.990Z,96808.36
2018-06-29T13:59:22.619Z,96804.34
2018-06-29T14:04:17.256Z,96796.38
2018-06-29T14:09:11.865Z,96798.08
2018-06-29T14:14:06.639Z,96792.27
2018-06-29T14:19:01.222Z,96785.34
2018-06-29T14:23:55.815Z,96786.33
2018-06-29T14:28:50.453Z,96782.23
2018-06-29T14:33:45.036Z,96772.66
2018-06-29T14:38:39.698Z,96766.00
2018-06-29T14:43:34.267Z,96764.39
2018-06-29T14:48:28.901Z,96762.03
2018-06-29T14:53:23.615Z,96754.27
2018-06-29T14:58:18.218Z,96749.88
2018-06-29T15:03:12.854Z,96749.50
2018-06-29T15:08:07.570Z,96743.28
2018-06-29T15:13:02.114Z,96744.88
2018-06-29T15:17:56.748Z,96749.58
2018-06-29T15:22:51.353Z,96738.00
2018-06-29T15:27:45.965Z,96731.13
2018-06-29T15:32:40.572Z,96734.41
2018-06-29T15:37:35.189Z,96740.30
2018-06-29T15:42:29.871Z,96745.83
2018-06-29T15:47:24.452Z,96743.80
2018-06-29T15:52:19.168Z,96746.84
2018-06-29T15:57:13.802Z,96742.86
2018-06-29T16:02:08.582Z,96744.99
2018-06-29T16:07:03.259Z,96752.93
2018-06-29T16:11:57.843Z,96754.33
2018-06-29T16:16:52.476Z,96752.33
2018-06-29T16:21:46.746Z,96746.27
2018-06-29T16:26:41.331Z,96752.39
2018-06-29T16:31:35.906Z,96752.29
2018-06-29T16:36:30.533Z,96761.45
2018-06-29T16:41:25.127Z,96754.05
2018-06-29T16:46:19.722Z,96763.68
2018-06-29T16:51:14.351Z,96765.30
2018-06-29T16:56:09.142Z,96764.67
2018-06-29T17:01:03.796Z,96760.75
2018-06-29T17:05:58.393Z,96772.44
2018-06-29T17:10:52.987Z,96770.86
2018-06-29T17:15:47.578Z,96771.02
2018-06-29T17:20:42.906Z,96777.59
2018-06-29T17:25:37.556Z,96776.11
2018-06-29T17:30:32.198Z,96772.33
2018-06-29T17:35:26.814Z,96770.91
2018-06-29T17:40:21.133Z,96770.83
2018-06-29T17:45:15.767Z,96772.07
2018-06-29T17:50:10.418Z,96775.36
2018-06-29T17:55:05.247Z,96773.11
2018-06-29T17:59:59.534Z,96773.52
2018-06-29T18:04:54.160Z,96770.21
2018-06-29T18:09:48.813Z,96781.36
2018-06-29T18:14:43.597Z,96785.36
2018-06-29T18:19:38.213Z,96784.20
2018-06-29T18:24:32.899Z,96786.88
2018-06-29T18:29:27.250Z,96798.17
2018-06-29T18:34:21.905Z,96784.39
2018-06-29T18:39:16.658Z,96798.06
2018-06-29T18:44:11.278Z,96801.56
2018-06-29T18:49:07.182Z,96810.51
2018-06-29T18:54:01.815Z,96803.08
2018-06-29T18:58:56.580Z,96809.47
2018-06-29T19:03:51.205Z,96815.11
2018-06-29T19:08:45.859Z,96813.72
2018-06-29T19:13:40.497Z,96814.65
2018-06-29T19:18:35.215Z,96814.11
2018-06-29T19:23:29.812Z,96817.81
2018-06-29T19:28:24.409Z,96817.89
2018-06-29T19:33:19.075Z,96830.13
2018-06-29T19:38:13.770Z,96826.11
2018-06-29T19:43:08.445Z,96831.75
2018-06-29T19:48:03.039Z,96836.53
2018-06-29T19:52:57.797Z,96844.36
2018-06-29T19:57:52.448Z,96842.98
2018-06-29T20:02:47.160Z,96843.87
2018-06-29T20:07:41.877Z,96841.91
2018-06-29T20:12:36.503Z,96846.75
2018-06-29T20:17:31.320Z,96843.94
2018-06-29T20:22:26.899Z,96843.36
2018-06-29T20:27:21.570Z,96858.22
2018-06-29T20:32:16.192Z,96853.48
2018-06-29T20:37:10.852Z,96857.88
2018-06-29T20:42:05.579Z,96851.55
2018-06-29T20:47:00.206Z,96860.27
2018-06-29T20:51:54.839Z,96858.02
2018-06-29T20:56:49.569Z,96865.33
2018-06-29T21:01:44.259Z,96858.66
2018-06-29T21:06:38.966Z,96854.27
2018-06-29T21:11:33.634Z,96857.75
2018-06-29T21:16:28.282Z,96855.16
2018-06-29T21:21:22.894Z,96854.57
2018-06-29T21:26:17.585Z,96854.95
2018-06-29T21:31:12.273Z,96860.04
2018-06-29T21:36:06.923Z,96857.62
2018-06-29T21:41:01.590Z,96861.06
2018-06-29T21:45:56.246Z,96861.28
2018-06-29T21:50:50.846Z,96856.20
2018-06-29T21:55:45.452Z,96857.80
2018-06-29T22:00:41.628Z,96855.48
2018-06-29T22:05:36.823Z,96851.86
2018-06-29T22:10:31.506Z,96845.81
2018-06-29T22:15:26.100Z,96852.02
2018-06-29T22:20:21.051Z,96847.91
2018-06-29T22:25:15.713Z,96848.56
2018-06-29T22:30:10.397Z,96839.58
2018-06-29T22:35:05.118Z,96843.56
2018-06-29T22:39:59.791Z,96844.99
2018-06-29T22:44:54.411Z,96848.45
2018-06-29T22:49:49.072Z,96847.88
2018-06-29T22:54:43.741Z,96848.50
2018-06-29T22:59:38.469Z,96845.44
2018-06-29T23:04:33.230Z,96841.33
2018-06-29T23:09:27.926Z,96835.34
2018-06-29T23:14:22.592Z,96838.22
2018-06-29T23:19:17.249Z,96840.19
2018-06-29T23:24:11.858Z,96836.91
2018-06-29T23:29:06.535Z,96836.63
2018-06-29T23:34:01.150Z,96839.94
2018-06-29T23:38:55.880Z,96836.31
2018-06-29T23:43:50.197Z,96832.66
2018-06-29T23:48:44.886Z,96839.98
2018-06-29T23:53:39.536Z,96840.66
2018-06-29T23:58:34.236Z,96836.00
